METAR Data
IDs: Format: Raw Decoded Include TAF

Data at: 1429 UTC 27 Nov 2021

LSZH 271420Z 17005KT 9999 -SHRA FEW020 03/01 Q0994 NOSIG